createdAt,value
2018-08-20T00:00:53.962Z,2.83
2018-08-20T00:03:22.632Z,2.95
2018-08-20T00:05:56.029Z,2.43
2018-08-20T00:08:25.478Z,2.40
2018-08-20T00:10:58.178Z,2.52
2018-08-20T00:13:27.410Z,2.50
2018-08-20T00:15:56.620Z,2.37
2018-08-20T00:18:30.408Z,2.55
2018-08-20T00:20:58.934Z,2.45
2018-08-20T00:23:27.512Z,2.60
2018-08-20T00:25:58.271Z,3.10
2018-08-20T00:28:27.657Z,2.33
2018-08-20T00:30:56.245Z,2.80
2018-08-20T00:33:24.877Z,2.85
2018-08-20T00:35:53.482Z,2.80
2018-08-20T00:38:22.035Z,2.02
2018-08-20T00:40:50.562Z,2.65
2018-08-20T00:43:19.142Z,2.33
2018-08-20T00:45:47.741Z,2.10
2018-08-20T00:48:16.406Z,1.95
2018-08-20T00:50:45.056Z,2.25
2018-08-20T00:53:13.558Z,2.10
2018-08-20T00:55:42.170Z,2.17
2018-08-20T00:58:10.764Z,2.30
2018-08-20T01:00:39.389Z,2.30
2018-08-20T01:03:08.127Z,1.98
2018-08-20T01:05:36.759Z,1.95
2018-08-20T01:08:05.487Z,2.17
2018-08-20T01:10:33.995Z,2.25
2018-08-20T01:13:02.596Z,2.02
2018-08-20T01:15:31.194Z,2.10
2018-08-20T01:17:59.880Z,2.30
2018-08-20T01:20:28.468Z,2.02
2018-08-20T01:22:57.249Z,2.77
2018-08-20T01:25:25.935Z,2.12
2018-08-20T01:27:54.462Z,2.05
2018-08-20T01:30:22.942Z,2.33
2018-08-20T01:32:52.911Z,2.02
2018-08-20T01:35:25.954Z,2.05
2018-08-20T01:37:54.536Z,2.10
2018-08-20T01:40:23.071Z,2.40
2018-08-20T01:42:52.522Z,2.08
2018-08-20T01:45:21.107Z,1.98
2018-08-20T01:47:49.734Z,1.75
2018-08-20T01:50:18.246Z,2.45
2018-08-20T01:52:46.800Z,2.15
2018-08-20T01:55:15.418Z,1.80
2018-08-20T01:57:44.934Z,2.58
2018-08-20T02:00:13.569Z,2.02
2018-08-20T02:02:42.195Z,2.17
2018-08-20T02:05:11.658Z,2.35
2018-08-20T02:07:40.297Z,2.33
2018-08-20T02:10:08.878Z,2.50
2018-08-20T02:12:37.538Z,2.20
2018-08-20T02:15:06.234Z,1.92
2018-08-20T02:17:34.931Z,2.20
2018-08-20T02:20:03.875Z,2.62
2018-08-20T02:22:32.872Z,2.70
2018-08-20T02:25:01.395Z,2.30
2018-08-20T02:27:29.926Z,2.17
2018-08-20T02:29:58.542Z,2.55
2018-08-20T02:32:27.092Z,2.40
2018-08-20T02:34:55.731Z,1.80
2018-08-20T02:37:31.023Z,1.27
2018-08-20T02:40:00.166Z,0.98
2018-08-20T02:42:28.874Z,0.85
2018-08-20T02:44:58.114Z,0.75
2018-08-20T02:47:26.691Z,1.00
2018-08-20T02:49:55.308Z,0.70
2018-08-20T02:52:23.948Z,0.50
2018-08-20T02:54:52.532Z,0.70
2018-08-20T02:57:21.163Z,0.60
2018-08-20T02:59:49.901Z,0.50
2018-08-20T03:02:18.531Z,0.57
2018-08-20T03:04:47.119Z,0.62
2018-08-20T03:07:15.649Z,0.50
2018-08-20T03:09:44.233Z,0.50
2018-08-20T03:12:12.816Z,0.37
2018-08-20T03:14:41.341Z,0.60
2018-08-20T03:17:09.983Z,0.50
2018-08-20T03:19:38.565Z,0.30
2018-08-20T03:22:07.389Z,0.30
2018-08-20T03:24:36.087Z,0.47
2018-08-20T03:27:04.700Z,0.28
2018-08-20T03:29:33.413Z,0.30
2018-08-20T03:32:02.164Z,0.60
2018-08-20T03:34:30.882Z,0.40
2018-08-20T03:36:59.503Z,0.30
2018-08-20T03:39:28.228Z,0.35
2018-08-20T03:41:56.746Z,0.37
2018-08-20T03:44:25.520Z,0.57
2018-08-20T03:46:54.161Z,0.40
2018-08-20T03:49:22.714Z,0.60
2018-08-20T03:51:51.268Z,0.60
2018-08-20T03:54:19.899Z,0.60
2018-08-20T03:56:48.496Z,0.90
2018-08-20T03:59:31.150Z,0.80
2018-08-20T04:02:02.171Z,0.80
2018-08-20T04:04:30.927Z,0.70
2018-08-20T04:07:01.978Z,0.95
2018-08-20T04:09:31.467Z,1.00
2018-08-20T04:12:00.872Z,1.10
2018-08-20T04:14:29.506Z,0.93
2018-08-20T04:16:58.992Z,1.20
2018-08-20T04:19:29.092Z,1.40
2018-08-20T04:21:58.063Z,1.07
2018-08-20T04:24:26.658Z,1.20
2018-08-20T04:26:55.393Z,1.20
2018-08-20T04:29:23.884Z,1.50
2018-08-20T04:31:52.546Z,1.37
2018-08-20T04:34:21.145Z,1.80
2018-08-20T04:36:50.443Z,1.90
2018-08-20T04:39:19.680Z,1.70
2018-08-20T04:41:48.982Z,2.40
2018-08-20T04:44:17.581Z,1.90
2018-08-20T04:46:46.207Z,2.20
2018-08-20T04:49:14.892Z,2.00
2018-08-20T04:51:43.404Z,2.30
2018-08-20T04:54:11.957Z,2.27
2018-08-20T04:56:40.561Z,2.50
2018-08-20T04:59:09.064Z,2.50
2018-08-20T05:01:38.147Z,2.57
2018-08-20T05:04:07.491Z,2.62
2018-08-20T05:06:36.037Z,2.50
2018-08-20T05:09:06.179Z,2.62
2018-08-20T05:11:34.743Z,2.03
2018-08-20T05:14:03.538Z,2.40
2018-08-20T05:16:32.162Z,2.20
2018-08-20T05:19:01.240Z,2.17
2018-08-20T05:21:29.784Z,2.27
2018-08-20T05:23:58.532Z,1.87
2018-08-20T05:26:27.113Z,2.03
2018-08-20T05:28:55.696Z,1.92
2018-08-20T05:31:24.280Z,1.80
2018-08-20T05:33:53.479Z,2.40
2018-08-20T05:36:22.161Z,1.65
2018-08-20T05:38:50.665Z,1.70
2018-08-20T05:41:19.286Z,1.40
2018-08-20T05:43:47.827Z,2.27
2018-08-20T05:46:16.495Z,1.70
2018-08-20T05:48:45.282Z,1.92
2018-08-20T05:51:13.969Z,2.17
2018-08-20T05:53:42.566Z,2.05
2018-08-20T05:56:11.236Z,2.35
2018-08-20T05:58:39.870Z,1.90
2018-08-20T06:01:08.609Z,2.27
2018-08-20T06:03:37.788Z,2.00
2018-08-20T06:06:07.055Z,1.95
2018-08-20T06:08:35.616Z,1.80
2018-08-20T06:11:04.309Z,2.10
2018-08-20T06:13:33.035Z,1.92
2018-08-20T06:16:01.694Z,1.60
2018-08-20T06:18:30.843Z,1.60
2018-08-20T06:20:59.522Z,1.75
2018-08-20T06:23:28.106Z,1.50
2018-08-20T06:25:56.631Z,1.65
2018-08-20T06:28:26.298Z,1.47
2018-08-20T06:30:55.595Z,1.80
2018-08-20T06:33:24.894Z,1.65
2018-08-20T06:35:53.435Z,1.67
2018-08-20T06:38:22.063Z,1.72
2018-08-20T06:40:50.747Z,1.42
2018-08-20T06:43:19.738Z,1.80
2018-08-20T06:45:48.321Z,1.80
2018-08-20T06:48:16.835Z,2.15
2018-08-20T06:50:45.401Z,2.15
2018-08-20T06:53:14.013Z,2.12
2018-08-20T06:55:42.653Z,1.95
2018-08-20T06:58:11.339Z,2.58
2018-08-20T07:00:39.933Z,2.00
2018-08-20T07:03:08.509Z,2.08
2018-08-20T07:05:37.152Z,1.50
2018-08-20T07:08:05.669Z,1.00
2018-08-20T07:10:42.332Z,0.88
2018-08-20T07:13:23.771Z,1.05
2018-08-20T07:15:52.410Z,1.07
2018-08-20T07:18:21.042Z,0.85
2018-08-20T07:20:49.677Z,0.90
2018-08-20T07:23:18.543Z,0.80
2018-08-20T07:25:47.458Z,1.05
2018-08-20T07:28:16.246Z,0.78
2018-08-20T07:30:44.967Z,1.10
2018-08-20T07:33:13.579Z,0.80
2018-08-20T07:35:42.115Z,0.72
2018-08-20T07:38:11.011Z,0.70
2018-08-20T07:40:39.674Z,0.70
2018-08-20T07:43:08.358Z,0.82
2018-08-20T07:45:37.042Z,0.60
2018-08-20T07:48:05.815Z,0.93
2018-08-20T07:50:34.619Z,1.00
2018-08-20T07:53:03.816Z,0.88
2018-08-20T07:55:32.686Z,0.65
2018-08-20T07:58:01.698Z,0.80
2018-08-20T08:00:30.214Z,0.93
2018-08-20T08:02:58.760Z,0.93
2018-08-20T08:05:28.374Z,0.93
2018-08-20T08:07:57.057Z,1.02
2018-08-20T08:10:25.659Z,0.98
2018-08-20T08:12:54.483Z,0.90
2018-08-20T08:15:23.211Z,0.88
2018-08-20T08:17:53.187Z,1.30
2018-08-20T08:20:23.449Z,1.02
2018-08-20T08:22:52.205Z,1.00
2018-08-20T08:25:20.924Z,0.93
2018-08-20T08:27:49.663Z,0.98
2018-08-20T08:30:19.378Z,0.82
2018-08-20T08:32:48.265Z,1.02
2018-08-20T08:35:17.097Z,1.00
2018-08-20T08:37:45.837Z,1.10
2018-08-20T08:40:17.076Z,0.70
2018-08-20T08:42:45.713Z,1.10
2018-08-20T08:45:16.716Z,0.90
2018-08-20T08:47:46.030Z,1.02
2018-08-20T08:50:16.071Z,0.88
2018-08-20T08:52:45.107Z,1.30
2018-08-20T08:55:13.849Z,0.90
2018-08-20T08:57:43.867Z,0.90
2018-08-20T09:00:16.856Z,0.75
2018-08-20T09:02:45.911Z,0.90
2018-08-20T09:05:14.671Z,0.98
2018-08-20T09:07:43.734Z,1.17
2018-08-20T09:10:13.350Z,1.15
2018-08-20T09:12:42.020Z,1.02
2018-08-20T09:15:13.236Z,0.90
2018-08-20T09:17:42.161Z,0.80
2018-08-20T09:20:13.311Z,0.80
2018-08-20T09:22:41.984Z,1.27
2018-08-20T09:25:12.206Z,1.00
2018-08-20T09:27:41.931Z,0.82
2018-08-20T09:30:17.576Z,0.75
2018-08-20T09:32:47.496Z,0.65
2018-08-20T09:35:16.575Z,0.70
2018-08-20T09:37:45.201Z,0.75
2018-08-20T09:40:14.163Z,1.00
2018-08-20T09:42:44.062Z,0.80
2018-08-20T09:45:13.011Z,1.00
2018-08-20T09:47:43.230Z,1.00
2018-08-20T09:50:15.196Z,0.90
2018-08-20T09:52:44.482Z,1.05
2018-08-20T09:55:13.622Z,0.62
2018-08-20T09:57:42.318Z,0.60
2018-08-20T10:00:20.367Z,0.70
2018-08-20T10:02:49.935Z,0.80
2018-08-20T10:05:19.229Z,0.70
2018-08-20T10:07:48.626Z,0.62
2018-08-20T10:10:18.033Z,0.80
2018-08-20T10:12:47.744Z,0.70
2018-08-20T10:15:16.429Z,0.57
2018-08-20T10:17:45.509Z,0.95
2018-08-20T10:20:15.751Z,0.98
2018-08-20T10:22:44.638Z,1.05
2018-08-20T10:25:13.320Z,0.70
2018-08-20T10:27:41.887Z,0.90
2018-08-20T10:30:11.741Z,0.70
2018-08-20T10:32:40.400Z,0.85
2018-08-20T10:35:09.140Z,0.70
2018-08-20T10:37:37.775Z,0.60
2018-08-20T10:40:07.732Z,0.78
2018-08-20T10:42:36.719Z,0.60
2018-08-20T10:45:12.627Z,0.70
2018-08-20T10:47:41.319Z,0.60
2018-08-20T10:50:14.210Z,1.12
2018-08-20T10:52:44.375Z,0.68
2018-08-20T10:55:13.048Z,0.50
2018-08-20T10:57:42.002Z,0.70
2018-08-20T11:00:11.591Z,0.78
2018-08-20T11:02:40.963Z,0.55
2018-08-20T11:05:11.897Z,0.70
2018-08-20T11:07:41.143Z,0.70
2018-08-20T11:10:10.203Z,0.60
2018-08-20T11:12:39.024Z,0.60
2018-08-20T11:15:09.140Z,0.65
2018-08-20T11:17:38.757Z,0.82
2018-08-20T11:20:10.566Z,0.50
2018-08-20T11:22:39.379Z,0.68
2018-08-20T11:25:09.050Z,0.70
2018-08-20T11:27:38.175Z,0.98
2018-08-20T11:30:07.942Z,0.70
2018-08-20T11:32:36.630Z,0.50
2018-08-20T11:35:05.531Z,0.50
2018-08-20T11:37:34.180Z,0.60
2018-08-20T11:40:03.038Z,0.55
2018-08-20T11:42:32.322Z,0.60
2018-08-20T11:45:01.568Z,0.50
2018-08-20T11:47:30.245Z,0.75
2018-08-20T11:49:59.443Z,0.70
2018-08-20T11:52:28.308Z,0.47
2018-08-20T11:54:56.916Z,0.70
2018-08-20T11:57:25.438Z,0.70
2018-08-20T11:59:54.169Z,0.80
2018-08-20T12:02:23.732Z,0.55
2018-08-20T12:04:52.534Z,0.45
2018-08-20T12:07:21.120Z,0.60
2018-08-20T12:09:49.891Z,0.60
2018-08-20T12:12:18.941Z,0.60
2018-08-20T12:14:47.500Z,0.55
2018-08-20T12:17:16.988Z,0.47
2018-08-20T12:19:45.539Z,0.70
2018-08-20T12:22:14.134Z,0.60
2018-08-20T12:24:42.674Z,0.60
2018-08-20T12:27:11.360Z,0.42
2018-08-20T12:29:40.015Z,0.45
2018-08-20T12:32:08.881Z,0.60
2018-08-20T12:34:37.431Z,0.50
2018-08-20T12:37:06.067Z,0.45
2018-08-20T12:39:34.685Z,0.40
2018-08-20T12:42:03.735Z,0.40
2018-08-20T12:44:32.361Z,0.50
2018-08-20T12:47:00.851Z,0.42
2018-08-20T12:49:29.939Z,0.70
2018-08-20T12:51:58.574Z,0.45
2018-08-20T12:54:27.381Z,0.55
2018-08-20T12:56:57.529Z,0.55
2018-08-20T12:59:26.111Z,0.50
2018-08-20T13:01:56.028Z,0.65
2018-08-20T13:04:24.610Z,0.60
2018-08-20T13:06:54.116Z,0.60
2018-08-20T13:09:22.698Z,0.40
2018-08-20T13:11:51.385Z,0.60
2018-08-20T13:14:20.070Z,0.60
2018-08-20T13:16:48.612Z,0.53
2018-08-20T13:19:18.112Z,0.95
2018-08-20T13:21:46.741Z,1.05
2018-08-20T13:24:15.421Z,0.65
2018-08-20T13:26:43.934Z,0.70
2018-08-20T13:29:12.589Z,0.70
2018-08-20T13:31:41.667Z,0.47
2018-08-20T13:34:10.275Z,1.00
2018-08-20T13:36:39.057Z,0.75
2018-08-20T13:39:09.387Z,0.85
2018-08-20T13:41:38.618Z,0.68
2018-08-20T13:44:07.578Z,0.50
2018-08-20T13:46:36.665Z,0.70
2018-08-20T13:49:05.558Z,0.72
2018-08-20T13:51:34.170Z,0.60
2018-08-20T13:54:02.822Z,0.68
2018-08-20T13:56:31.423Z,0.50
2018-08-20T13:59:00.088Z,0.40
2018-08-20T14:01:28.774Z,0.40
2018-08-20T14:03:58.535Z,0.60
2018-08-20T14:06:27.787Z,0.60
2018-08-20T14:08:56.367Z,0.47
2018-08-20T14:11:24.990Z,0.30
2018-08-20T14:13:53.551Z,0.55
2018-08-20T14:16:22.183Z,0.42
2018-08-20T14:18:50.875Z,0.50
2018-08-20T14:21:19.486Z,0.47
2018-08-20T14:23:49.147Z,0.50
2018-08-20T14:26:18.392Z,0.30
2018-08-20T14:28:46.961Z,0.50
2018-08-20T14:31:15.665Z,0.42
2018-08-20T14:33:44.241Z,0.50
2018-08-20T14:36:12.927Z,0.20
2018-08-20T14:38:41.510Z,0.45
2018-08-20T14:41:10.113Z,0.40
2018-08-20T14:43:38.766Z,0.30
2018-08-20T14:46:12.685Z,0.37
2018-08-20T14:48:41.250Z,0.40
2018-08-20T14:51:09.903Z,0.25
2018-08-20T14:53:38.630Z,0.50
2018-08-20T14:56:07.772Z,0.30
2018-08-20T14:58:36.419Z,0.50
2018-08-20T15:01:05.071Z,0.40
2018-08-20T15:03:33.688Z,0.30
2018-08-20T15:06:02.508Z,0.35
2018-08-20T15:08:31.594Z,0.40
2018-08-20T15:11:00.175Z,0.50
2018-08-20T15:13:29.711Z,0.40
2018-08-20T15:15:58.446Z,0.30
2018-08-20T15:18:27.031Z,0.50
2018-08-20T15:20:55.531Z,0.30
2018-08-20T15:23:24.148Z,0.20
2018-08-20T15:25:52.695Z,0.50
2018-08-20T15:28:21.287Z,0.40
2018-08-20T15:30:49.840Z,0.40
2018-08-20T15:33:18.423Z,0.50
2018-08-20T15:35:47.006Z,0.40
2018-08-20T15:38:15.644Z,0.40
2018-08-20T15:40:44.497Z,0.30
2018-08-20T15:43:13.096Z,0.53
2018-08-20T15:45:43.290Z,0.40
2018-08-20T15:48:11.974Z,0.40
2018-08-20T15:50:40.654Z,0.35
2018-08-20T15:53:09.321Z,0.30
2018-08-20T15:55:38.034Z,0.78
2018-08-20T15:58:06.607Z,0.40
2018-08-20T16:00:35.219Z,0.40
2018-08-20T16:03:03.836Z,0.30
2018-08-20T16:05:33.126Z,0.50
2018-08-20T16:08:01.759Z,0.30
2018-08-20T16:10:30.401Z,0.40
2018-08-20T16:12:59.550Z,0.50
2018-08-20T16:15:28.122Z,0.62
2018-08-20T16:17:56.705Z,0.30
2018-08-20T16:20:26.105Z,0.45
2018-08-20T16:22:54.681Z,0.33
2018-08-20T16:25:23.947Z,0.35
2018-08-20T16:27:52.675Z,0.40
2018-08-20T16:30:21.215Z,0.40
2018-08-20T16:32:49.764Z,0.40
2018-08-20T16:35:18.368Z,0.50
2018-08-20T16:37:47.005Z,0.47
2018-08-20T16:40:15.694Z,0.50
2018-08-20T16:42:44.376Z,0.50
2018-08-20T16:45:13.737Z,0.40
2018-08-20T16:47:42.292Z,0.50
2018-08-20T16:50:12.472Z,0.50
2018-08-20T16:52:41.470Z,0.50
2018-08-20T16:55:10.769Z,0.40
2018-08-20T16:57:39.456Z,0.50
2018-08-20T17:00:10.355Z,0.37
2018-08-20T17:02:40.671Z,0.40
2018-08-20T17:05:10.890Z,0.50
2018-08-20T17:07:39.591Z,0.60
2018-08-20T17:10:09.931Z,0.30
2018-08-20T17:12:38.633Z,0.57
2018-08-20T17:15:12.133Z,0.50
2018-08-20T17:17:41.024Z,0.50
2018-08-20T17:20:11.227Z,0.45
2018-08-20T17:22:40.259Z,0.40
2018-08-20T17:25:09.402Z,0.50
2018-08-20T17:27:38.014Z,0.40
2018-08-20T17:30:08.548Z,0.50
2018-08-20T17:32:37.297Z,0.50
2018-08-20T17:35:08.371Z,0.53
2018-08-20T17:37:37.016Z,0.70
2018-08-20T17:40:09.223Z,0.40
2018-08-20T17:42:37.909Z,0.50
2018-08-20T17:45:08.135Z,0.37
2018-08-20T17:47:39.131Z,0.53
2018-08-20T17:50:17.495Z,0.20
2018-08-20T17:52:46.169Z,0.47
2018-08-20T17:55:14.889Z,0.55
2018-08-20T17:57:43.437Z,0.53
2018-08-20T18:00:30.787Z,0.40
2018-08-20T18:02:59.802Z,0.30
2018-08-20T18:05:28.366Z,0.50
2018-08-20T18:07:57.103Z,0.60
2018-08-20T18:10:25.767Z,0.60
2018-08-20T18:12:54.495Z,0.80
2018-08-20T18:15:23.201Z,0.53
2018-08-20T18:17:51.798Z,0.60
2018-08-20T18:20:20.547Z,0.40
2018-08-20T18:22:49.129Z,0.53
2018-08-20T18:25:17.712Z,0.60
2018-08-20T18:27:46.348Z,0.40
2018-08-20T18:30:17.385Z,0.70
2018-08-20T18:32:46.794Z,0.50
2018-08-20T18:35:22.838Z,0.60
2018-08-20T18:37:52.284Z,0.43
2018-08-20T18:40:20.858Z,0.40
2018-08-20T18:42:49.407Z,1.00
2018-08-20T18:45:18.027Z,0.60
2018-08-20T18:47:46.595Z,0.40
2018-08-20T18:50:15.215Z,0.73
2018-08-20T18:52:43.797Z,0.50
2018-08-20T18:55:12.523Z,0.80
2018-08-20T18:57:41.169Z,0.93
2018-08-20T19:00:13.366Z,0.70
2018-08-20T19:02:49.732Z,0.83
2018-08-20T19:05:18.999Z,0.63
2018-08-20T19:07:48.065Z,0.80
2018-08-20T19:10:20.967Z,0.67
2018-08-20T19:12:49.766Z,0.80
2018-08-20T19:15:30.228Z,0.77
2018-08-20T19:17:59.675Z,0.60
2018-08-20T19:20:28.221Z,1.10
2018-08-20T19:22:56.857Z,0.67
2018-08-20T19:25:25.404Z,0.60
2018-08-20T19:27:54.065Z,0.73
2018-08-20T19:30:24.389Z,0.70
2018-08-20T19:32:53.037Z,0.63
2018-08-20T19:35:21.594Z,0.80
2018-08-20T19:37:50.341Z,0.90
2018-08-20T19:40:18.973Z,1.00
2018-08-20T19:42:47.814Z,1.07
2018-08-20T19:45:16.499Z,1.13
2018-08-20T19:47:46.106Z,0.80
2018-08-20T19:50:14.691Z,1.17
2018-08-20T19:52:43.519Z,1.03
2018-08-20T19:55:12.847Z,0.90
2018-08-20T19:57:41.413Z,0.57
2018-08-20T20:00:11.842Z,1.10
2018-08-20T20:02:42.412Z,2.00
2018-08-20T20:05:13.763Z,1.60
2018-08-20T20:07:57.298Z,1.77
2018-08-20T20:10:25.881Z,1.40
2018-08-20T20:12:56.206Z,0.97
2018-08-20T20:15:25.709Z,1.40
2018-08-20T20:17:55.899Z,1.00
2018-08-20T20:20:24.670Z,1.00
2018-08-20T20:22:53.404Z,1.13
2018-08-20T20:25:21.987Z,0.80
2018-08-20T20:27:50.535Z,0.83
2018-08-20T20:30:19.258Z,1.00
2018-08-20T20:32:47.899Z,0.90
2018-08-20T20:35:16.466Z,0.90
2018-08-20T20:37:45.047Z,1.00
2018-08-20T20:40:13.930Z,0.80
2018-08-20T20:42:42.854Z,1.00
2018-08-20T20:45:11.672Z,1.00
2018-08-20T20:47:40.358Z,1.03
2018-08-20T20:50:08.911Z,0.83
2018-08-20T20:52:37.599Z,0.83
2018-08-20T20:55:06.322Z,0.73
2018-08-20T20:57:34.975Z,1.00
2018-08-20T21:00:03.539Z,0.93
2018-08-20T21:02:32.129Z,0.87
2018-08-20T21:05:08.938Z,0.87
2018-08-20T21:07:37.887Z,1.07
2018-08-20T21:10:07.335Z,0.80
2018-08-20T21:12:35.963Z,0.90
2018-08-20T21:15:05.507Z,1.37
2018-08-20T21:17:35.396Z,0.93
2018-08-20T21:20:04.023Z,1.07
2018-08-20T21:22:35.477Z,1.00
2018-08-20T21:25:05.454Z,1.13
2018-08-20T21:27:34.170Z,1.00
2018-08-20T21:30:02.868Z,0.80
2018-08-20T21:32:31.542Z,1.00
2018-08-20T21:35:00.226Z,0.90
2018-08-20T21:37:28.852Z,0.83
2018-08-20T21:39:57.450Z,0.90
2018-08-20T21:42:31.198Z,0.90
2018-08-20T21:44:59.948Z,0.73
2018-08-20T21:47:30.259Z,0.70
2018-08-20T21:49:58.996Z,0.80
2018-08-20T21:52:27.530Z,0.97
2018-08-20T21:54:56.158Z,1.00
2018-08-20T21:57:24.745Z,2.47
2018-08-20T22:00:04.154Z,3.57
2018-08-20T22:02:33.874Z,1.80
2018-08-20T22:05:02.618Z,1.17
2018-08-20T22:07:31.200Z,1.23
2018-08-20T22:09:59.814Z,1.20
2018-08-20T22:12:28.427Z,1.20
2018-08-20T22:14:56.991Z,1.17
2018-08-20T22:17:30.303Z,1.60
2018-08-20T22:19:59.454Z,1.67
2018-08-20T22:22:28.700Z,2.13
2018-08-20T22:25:00.866Z,1.80
2018-08-20T22:27:30.618Z,1.77
2018-08-20T22:30:01.840Z,2.00
2018-08-20T22:32:30.994Z,1.93
2018-08-20T22:35:00.065Z,1.90
2018-08-20T22:37:28.630Z,1.87
2018-08-20T22:40:02.397Z,1.60
2018-08-20T22:42:42.683Z,1.60
2018-08-20T22:45:13.722Z,1.80
2018-08-20T22:47:42.425Z,1.40
2018-08-20T22:50:11.017Z,1.80
2018-08-20T22:52:43.283Z,1.70
2018-08-20T22:55:12.788Z,1.80
2018-08-20T22:57:48.897Z,1.50
2018-08-20T23:00:22.730Z,1.57
2018-08-20T23:02:52.555Z,1.30
2018-08-20T23:05:21.198Z,1.10
2018-08-20T23:07:50.009Z,1.20
2018-08-20T23:10:18.775Z,1.30
2018-08-20T23:12:47.958Z,1.07
2018-08-20T23:15:16.579Z,1.30
2018-08-20T23:17:45.134Z,1.00
2018-08-20T23:20:22.674Z,0.80
2018-08-20T23:22:51.261Z,1.00
2018-08-20T23:25:19.840Z,0.90
2018-08-20T23:27:50.119Z,1.00
2018-08-20T23:30:19.662Z,1.30
2018-08-20T23:32:48.607Z,0.87
2018-08-20T23:35:17.196Z,0.90
2018-08-20T23:37:46.291Z,1.00
2018-08-20T23:40:14.919Z,1.10
2018-08-20T23:42:44.071Z,0.90
2018-08-20T23:45:12.907Z,0.80
2018-08-20T23:47:41.487Z,1.00
2018-08-20T23:50:10.055Z,1.13
2018-08-20T23:52:38.608Z,1.10
2018-08-20T23:55:07.295Z,0.83
2018-08-20T23:57:35.978Z,1.27
